Time;durP1;ratioP1;P1;durP2;ratioP2;P2;SDS_P1;SDS_P2;PMS_P1;PMS_P2;Temp;Humidity;BMP_temperature;BMP_pressure;BME280_temperature;BME280_humidity;BME280_pressure;Samples;Min_cycle;Max_cycle;Signal;HPM_P1;HPM_P2
2024/03/26 00:04:05;;;;;;;0.00;0.00;;;;;;;2.53;100.00;94401.38;10390003;28;20396;-81
2024/03/26 00:09:06;;;;;;;0.00;0.00;;;;;;;2.48;100.00;94403.13;10388729;28;20023;-80
2024/03/26 00:14:06;;;;;;;0.00;0.00;;;;;;;2.36;100.00;94411.88;10388216;28;20158;-82
2024/03/26 00:19:06;;;;;;;0.00;0.00;;;;;;;2.36;100.00;94408.44;10371509;28;20025;-81
2024/03/26 00:24:07;;;;;;;0.00;0.00;;;;;;;2.33;100.00;94406.22;10389395;28;20502;-81
2024/03/26 00:29:07;;;;;;;0.00;0.00;;;;;;;2.22;100.00;94399.88;10370403;28;20488;-81
2024/03/26 00:34:08;;;;;;;0.00;0.00;;;;;;;2.38;100.00;94395.75;10387832;28;20021;-79
2024/03/26 00:39:08;;;;;;;0.00;0.00;;;;;;;2.48;100.00;94395.97;10387718;28;20033;-80
2024/03/26 00:44:09;;;;;;;0.00;0.00;;;;;;;2.61;100.00;94386.16;10369126;28;20045;-80
2024/03/26 00:49:09;;;;;;;0.00;0.00;;;;;;;2.58;100.00;94390.06;10381391;28;20030;-80
2024/03/26 00:54:13;;;;;;;0.00;0.00;;;;;;;2.62;100.00;94390.44;10381785;28;20571;-78
2024/03/26 00:59:13;;;;;;;0.00;0.00;;;;;;;2.68;100.00;94392.16;10388178;28;20040;-79
2024/03/26 01:04:13;;;;;;;0.00;0.00;;;;;;;2.69;100.00;94388.47;10387249;28;20040;-79
2024/03/26 01:09:14;;;;;;;0.00;0.00;;;;;;;2.69;100.00;94372.53;10371172;28;20090;-79
2024/03/26 01:14:14;;;;;;;0.00;0.00;;;;;;;2.58;100.00;94379.47;10388147;28;20040;-80
2024/03/26 01:19:15;;;;;;;0.00;0.00;;;;;;;2.42;100.00;94383.63;10387465;28;20280;-81
2024/03/26 01:24:15;;;;;;;0.00;0.00;;;;;;;2.37;100.00;94384.34;10387673;28;20124;-82
2024/03/26 01:29:26;;;;;;;0.00;0.00;;;;;;;2.21;100.00;94403.56;10389279;28;20025;-80
2024/03/26 01:34:27;;;;;;;0.00;0.00;;;;;;;2.11;100.00;94401.47;10382470;28;21103;-80
2024/03/26 01:39:27;;;;;;;0.00;0.00;;;;;;;2.09;100.00;94406.19;10387396;28;20054;-80
2024/03/26 01:44:28;;;;;;;0.00;0.00;;;;;;;2.06;100.00;94406.66;10387068;28;20053;-81
2024/03/26 01:49:33;;;;;;;0.00;0.00;;;;;;;2.22;100.00;94402.53;10387479;28;20942;-81
2024/03/26 01:54:33;;;;;;;0.00;0.00;;;;;;;2.08;100.00;94403.78;10387087;28;20033;-81
2024/03/26 01:59:34;;;;;;;0.00;0.00;;;;;;;2.17;100.00;94395.25;10388636;28;20412;-81
2024/03/26 02:04:35;;;;;;;0.00;0.00;;;;;;;2.24;100.00;94386.41;10370362;28;20506;-81
2024/03/26 02:09:35;;;;;;;0.00;0.00;;;;;;;2.14;100.00;94401.03;10388148;28;20117;-79
2024/03/26 02:14:36;;;;;;;0.00;0.00;;;;;;;2.19;100.00;94395.03;10388256;28;20037;-80
2024/03/26 02:19:36;;;;;;;0.00;0.00;;;;;;;2.13;100.00;94388.00;10394342;28;20125;-80
2024/03/26 02:24:37;;;;;;;0.00;0.00;;;;;;;2.12;100.00;94392.50;10388926;28;20025;-81
2024/03/26 02:29:37;;;;;;;0.00;0.00;;;;;;;1.98;100.00;94406.97;10396650;28;20033;-81
2024/03/26 02:34:38;;;;;;;0.00;0.00;;;;;;;2.07;100.00;94395.03;10395165;28;20084;-80
2024/03/26 02:39:38;;;;;;;0.00;0.00;;;;;;;2.13;100.00;94396.75;10377216;28;20345;-78
2024/03/26 02:44:38;;;;;;;0.00;0.00;;;;;;;2.08;100.00;94396.66;10394318;28;20045;-80
2024/03/26 02:49:39;;;;;;;0.00;0.00;;;;;;;2.15;100.00;94400.00;10394460;28;20032;-80
2024/03/26 02:54:39;;;;;;;0.00;0.00;;;;;;;2.15;100.00;94401.81;10395127;28;20018;-81
2024/03/26 02:59:39;;;;;;;0.00;0.00;;;;;;;1.91;100.00;94404.41;10395719;28;20026;-81
2024/03/26 03:04:41;;;;;;;0.00;0.00;;;;;;;1.88;100.00;94411.00;10390399;28;20300;-81
2024/03/26 03:09:45;;;;;;;0.00;0.00;;;;;;;1.80;100.00;94402.56;10383681;28;20885;-79
2024/03/26 03:14:45;;;;;;;0.00;0.00;;;;;;;1.63;100.00;94419.13;10403582;28;20480;-80
2024/03/26 03:19:46;;;;;;;0.00;0.00;;;;;;;1.50;100.00;94425.38;10393687;28;20175;-78
2024/03/26 03:24:46;;;;;;;0.00;0.00;;;;;;;1.48;100.00;94429.28;10375077;28;20091;-78
2024/03/26 03:29:47;;;;;;;0.00;0.00;;;;;;;1.46;100.00;94440.09;10379252;28;20025;-78
2024/03/26 03:34:48;;;;;;;0.00;0.00;;;;;;;1.50;100.00;94451.84;10389463;28;20037;-80
2024/03/26 03:39:48;;;;;;;0.00;0.00;;;;;;;1.62;100.00;94443.97;10389595;28;20396;-81
2024/03/26 03:44:49;;;;;;;0.00;0.00;;;;;;;1.59;100.00;94454.19;10392890;28;20168;-81
2024/03/26 03:49:49;;;;;;;0.00;0.00;;;;;;;1.57;100.00;94429.78;10393211;28;20029;-81
2024/03/26 03:54:49;;;;;;;0.00;0.00;;;;;;;1.49;100.00;94430.91;10391951;28;20650;-80
2024/03/26 03:59:50;;;;;;;0.00;0.00;;;;;;;1.37;100.00;94438.81;10392430;28;20407;-79
2024/03/26 04:04:50;;;;;;;0.00;0.00;;;;;;;1.34;100.00;94457.75;10392194;28;20380;-80
2024/03/26 04:09:54;;;;;;;0.00;0.00;;;;;;;1.11;100.00;94469.03;10374368;28;20025;-82
2024/03/26 04:14:54;;;;;;;0.00;0.00;;;;;;;1.21;100.00;94465.88;10391082;28;20608;-82
2024/03/26 04:19:55;;;;;;;0.00;0.00;;;;;;;1.24;100.00;94473.38;10391618;28;20188;-82
2024/03/26 04:24:55;;;;;;;0.00;0.00;;;;;;;1.23;100.00;94479.69;10392263;28;20436;-82
2024/03/26 04:29:56;;;;;;;0.00;0.00;;;;;;;1.28;100.00;94493.06;10391178;28;20026;-82
2024/03/26 04:34:56;;;;;;;0.00;0.00;;;;;;;1.41;100.00;94508.00;10391889;28;20021;-83
2024/03/26 04:39:57;;;;;;;0.00;0.00;;;;;;;1.40;100.00;94522.28;10389742;28;21092;-82
2024/03/26 04:44:57;;;;;;;0.00;0.00;;;;;;;1.52;100.00;94505.44;10372783;28;20091;-82
2024/03/26 04:49:58;;;;;;;0.00;0.00;;;;;;;1.52;100.00;94501.94;10390499;28;20022;-83
2024/03/26 04:54:58;;;;;;;0.00;0.00;;;;;;;1.80;100.00;94477.56;10390547;28;20755;-80
2024/03/26 04:59:58;;;;;;;0.00;0.00;;;;;;;1.88;100.00;94485.22;10390013;28;20041;-79
2024/03/26 05:04:59;;;;;;;0.00;0.00;;;;;;;2.25;100.00;94475.50;10389533;28;20065;-79
2024/03/26 05:09:59;;;;;;;0.00;0.00;;;;;;;2.24;100.00;94493.25;10389628;28;20264;-81
2024/03/26 05:15:00;;;;;;;0.00;0.00;;;;;;;2.14;100.00;94477.09;10386987;28;20156;-82
2024/03/26 05:20:01;;;;;;;0.00;0.00;;;;;;;2.49;100.00;94466.53;10388382;28;20546;-81
2024/03/26 05:25:01;;;;;;;0.00;0.00;;;;;;;2.86;100.00;94466.34;10387619;28;20032;-81
2024/03/26 05:30:01;;;;;;;0.00;0.00;;;;;;;3.49;100.00;94469.25;10374094;28;20132;-84
2024/03/26 05:35:02;;;;;;;0.00;0.00;;;;;;;4.25;100.00;94465.59;10387438;28;20754;-78
2024/03/26 05:40:03;;;;;;;0.00;0.00;;;;;;;4.73;100.00;94466.91;10386638;28;20376;-81
2024/03/26 05:45:04;;;;;;;0.00;0.00;;;;;;;4.89;100.00;94459.16;10387163;28;20102;-82
2024/03/26 05:50:06;;;;;;;0.00;0.00;;;;;;;5.18;100.00;94474.97;10388333;28;20456;-81
2024/03/26 05:55:06;;;;;;;0.00;0.00;;;;;;;6.27;98.23;94461.91;10367682;28;20100;-80
2024/03/26 06:00:08;;;;;;;0.00;0.00;;;;;;;7.07;86.55;94453.16;10382307;28;20038;-77
2024/03/26 06:05:08;;;;;;;0.00;0.00;;;;;;;7.77;76.48;94447.63;10375762;28;20455;-78
2024/03/26 06:10:09;;;;;;;0.00;0.00;;;;;;;8.35;76.40;94463.56;10373991;28;20083;-78
2024/03/26 06:15:09;;;;;;;0.00;0.00;;;;;;;8.64;65.80;94466.56;10379379;28;20327;-79
2024/03/26 06:20:10;;;;;;;0.00;0.00;;;;;;;8.63;63.38;94464.16;10381002;28;20021;-77
2024/03/26 06:25:11;;;;;;;0.00;0.00;;;;;;;8.57;62.71;94459.84;10378810;28;20065;-78
2024/03/26 06:30:11;;;;;;;0.00;0.00;;;;;;;9.01;65.44;94470.81;10378129;28;20032;-77
2024/03/26 06:35:12;;;;;;;0.00;0.00;;;;;;;9.90;62.57;94469.53;10378344;28;20283;-79
2024/03/26 06:40:12;;;;;;;0.00;0.00;;;;;;;9.68;64.30;94472.56;10378369;28;20035;-78
2024/03/26 06:45:14;;;;;;;0.00;0.00;;;;;;;9.99;65.69;94478.66;10378123;28;20425;-79
2024/03/26 06:50:14;;;;;;;0.00;0.00;;;;;;;10.72;68.29;94479.84;10378706;28;20847;-79
2024/03/26 06:55:16;;;;;;;0.00;0.00;;;;;;;11.99;57.44;94466.53;10378833;28;20025;-78
2024/03/26 07:00:17;;;;;;;0.00;0.00;;;;;;;12.51;55.79;94477.44;10378652;28;20025;-79
2024/03/26 07:05:18;;;;;;;0.00;0.00;;;;;;;11.83;55.04;94469.38;10387832;28;20504;-79
2024/03/26 07:10:19;;;;;;;0.00;0.00;;;;;;;11.60;57.13;94460.22;10386209;28;20087;-78
2024/03/26 07:15:21;;;;;;;0.00;0.00;;;;;;;11.06;58.65;94454.03;10386372;28;20193;-79
2024/03/26 07:20:21;;;;;;;0.00;0.00;;;;;;;11.20;58.18;94457.66;10385668;28;20029;-78
2024/03/26 07:25:22;;;;;;;0.00;0.00;;;;;;;11.16;56.40;94450.44;10386054;28;20033;-79
2024/03/26 07:30:22;;;;;;;0.00;0.00;;;;;;;11.79;54.20;94444.94;10369841;28;20380;-79
2024/03/26 07:35:24;;;;;;;0.00;0.00;;;;;;;12.79;50.43;94444.09;10387688;28;20060;-80
2024/03/26 07:40:24;;;;;;;0.00;0.00;;;;;;;13.48;48.04;94432.72;10386814;28;21104;-78
2024/03/26 07:45:27;;;;;;;0.00;0.00;;;;;;;13.77;46.89;94426.25;10387436;28;20064;-79
2024/03/26 07:50:28;;;;;;;0.00;0.00;;;;;;;13.44;46.75;94417.44;10387325;28;20272;-79
2024/03/26 07:55:28;;;;;;;0.00;0.00;;;;;;;13.27;46.27;94418.78;10385573;28;20026;-80
2024/03/26 08:00:28;;;;;;;0.00;0.00;;;;;;;13.64;46.77;94418.94;10384943;28;20728;-78
2024/03/26 08:05:29;;;;;;;0.00;0.00;;;;;;;13.89;45.66;94408.72;10384813;28;20044;-78
2024/03/26 08:10:29;;;;;;;0.00;0.00;;;;;;;13.54;45.13;94406.44;10385031;28;20332;-78
2024/03/26 08:15:31;;;;;;;0.00;0.00;;;;;;;13.58;45.31;94422.84;10384129;28;20291;-79
2024/03/26 08:20:32;;;;;;;0.00;0.00;;;;;;;13.18;45.46;94407.06;10365941;28;20353;-79
2024/03/26 08:25:33;;;;;;;0.00;0.00;;;;;;;12.55;47.40;94416.47;10364977;28;20029;-78
2024/03/26 08:30:34;;;;;;;0.00;0.00;;;;;;;12.37;53.91;94416.19;10392024;28;20496;-78
2024/03/26 08:35:39;;;;;;;0.00;0.00;;;;;;;12.31;49.20;94415.47;10364075;28;20077;-78
2024/03/26 08:40:42;;;;;;;0.00;0.00;;;;;;;12.09;47.72;94420.63;10382268;28;20449;-79
2024/03/26 08:45:44;;;;;;;0.00;0.00;;;;;;;12.81;48.48;94423.06;10382041;28;20154;-77
2024/03/26 08:50:45;;;;;;;0.00;0.00;;;;;;;12.97;49.82;94410.09;10365193;28;20033;-78
2024/03/26 08:55:45;;;;;;;0.00;0.00;;;;;;;13.12;48.60;94413.66;10382751;28;20400;-79
2024/03/26 09:00:45;;;;;;;0.00;0.00;;;;;;;12.69;48.47;94419.22;10382013;28;20033;-78
2024/03/26 09:05:46;;;;;;;0.00;0.00;;;;;;;13.22;48.42;94409.97;10383708;28;20268;-78
2024/03/26 09:10:46;;;;;;;0.00;0.00;;;;;;;12.82;48.74;94405.78;10383061;28;20334;-78
2024/03/26 09:15:46;;;;;;;0.00;0.00;;;;;;;13.41;46.71;94410.72;10382663;28;20785;-78
2024/03/26 09:20:47;;;;;;;0.00;0.00;;;;;;;13.65;43.79;94409.72;10384080;28;20022;-79
2024/03/26 09:25:47;;;;;;;0.00;0.00;;;;;;;13.16;44.52;94401.97;10367651;28;20013;-80
2024/03/26 09:30:51;;;;;;;0.00;0.00;;;;;;;13.80;43.33;94379.72;10368992;28;20896;-80
2024/03/26 09:35:52;;;;;;;0.00;0.00;;;;;;;13.96;42.92;94374.00;10384116;28;20504;-77
2024/03/26 09:40:57;;;;;;;0.00;0.00;;;;;;;13.79;45.77;94363.81;10382808;28;20030;-79
2024/03/26 09:45:58;;;;;;;0.00;0.00;;;;;;;14.44;43.67;94359.13;10381296;28;20057;-78
2024/03/26 09:51:00;;;;;;;0.00;0.00;;;;;;;15.07;42.04;94361.94;10383019;28;20017;-79
2024/03/26 09:56:00;;;;;;;0.00;0.00;;;;;;;16.23;40.80;94347.34;10382827;28;20829;-78
2024/03/26 10:01:02;;;;;;;0.00;0.00;;;;;;;16.43;39.80;94335.03;10382831;28;20083;-79
2024/03/26 10:06:04;;;;;;;0.00;0.00;;;;;;;16.18;38.58;94350.19;10390552;28;20087;-78
2024/03/26 10:11:05;;;;;;;0.00;0.00;;;;;;;15.95;39.08;94333.25;10384724;28;20032;-78
2024/03/26 10:16:05;;;;;;;0.00;0.00;;;;;;;16.09;40.44;94331.22;10382909;28;20031;-79
2024/03/26 10:21:06;;;;;;;0.00;0.00;;;;;;;16.25;38.20;94317.97;10384717;28;20156;-79
2024/03/26 10:26:07;;;;;;;0.00;0.00;;;;;;;16.21;39.19;94325.97;10366313;28;20033;-79
2024/03/26 10:31:08;;;;;;;0.00;0.00;;;;;;;16.18;39.67;94320.38;10384992;28;20020;-80
2024/03/26 10:36:12;;;;;;;0.00;0.00;;;;;;;15.92;38.09;94325.75;10382609;28;20269;-79
2024/03/26 10:41:22;;;;;;;0.00;0.00;;;;;;;16.27;38.94;94320.34;10390270;28;20029;-79
2024/03/26 10:46:23;;;;;;;0.00;0.00;;;;;;;16.06;39.76;94313.66;10388935;28;20041;-79
2024/03/26 10:51:25;;;;;;;0.00;0.00;;;;;;;16.03;38.73;94305.38;10388825;28;20079;-79
2024/03/26 10:56:26;;;;;;;0.00;0.00;;;;;;;15.99;39.11;94301.69;10388281;28;20586;-80
2024/03/26 11:01:28;;;;;;;0.00;0.00;;;;;;;15.82;38.92;94313.31;10390462;28;20282;-79
2024/03/26 11:06:29;;;;;;;0.00;0.00;;;;;;;15.83;39.10;94304.88;10390497;28;20067;-80
2024/03/26 11:11:34;;;;;;;0.00;0.00;;;;;;;15.57;40.20;94293.94;10389994;28;20532;-80
2024/03/26 11:16:40;;;;;;;0.00;0.00;;;;;;;16.00;39.88;94276.97;10388659;28;20029;-79
2024/03/26 11:21:42;;;;;;;0.00;0.00;;;;;;;15.93;38.95;94281.28;10388355;28;21157;-79
2024/03/26 11:26:43;;;;;;;0.00;0.00;;;;;;;16.12;39.43;94256.59;10389144;28;20055;-79
2024/03/26 11:31:45;;;;;;;0.00;0.00;;;;;;;16.08;39.59;94258.34;10390436;28;20033;-79
2024/03/26 11:36:46;;;;;;;0.00;0.00;;;;;;;15.31;40.17;94243.25;10389422;28;20182;-79
2024/03/26 11:41:47;;;;;;;0.00;0.00;;;;;;;15.62;39.53;94225.31;10389120;28;20453;-79
2024/03/26 11:46:48;;;;;;;0.00;0.00;;;;;;;15.57;38.36;94228.16;10388587;28;20057;-80
2024/03/26 11:51:49;;;;;;;0.00;0.00;;;;;;;15.27;39.56;94226.03;10389253;28;20087;-79
2024/03/26 11:56:50;;;;;;;0.00;0.00;;;;;;;15.41;39.22;94219.72;10368595;28;20744;-80
2024/03/26 12:01:50;;;;;;;0.00;0.00;;;;;;;15.55;38.24;94204.09;10387362;28;20030;-81
2024/03/26 12:06:51;;;;;;;0.00;0.00;;;;;;;15.49;39.23;94198.03;10387103;28;20033;-80
2024/03/26 12:11:51;;;;;;;0.00;0.00;;;;;;;15.48;38.57;94188.31;10386575;28;20318;-80
2024/03/26 12:16:52;;;;;;;0.00;0.00;;;;;;;15.71;38.76;94185.44;10368515;28;20029;-78
2024/03/26 12:21:53;;;;;;;0.00;0.00;;;;;;;15.88;38.89;94182.78;10369204;28;20033;-79
2024/03/26 12:26:53;;;;;;;0.00;0.00;;;;;;;15.95;38.18;94190.44;10388709;28;20021;-80
2024/03/26 12:31:54;;;;;;;0.00;0.00;;;;;;;15.91;38.75;94186.78;10388850;28;20017;-80
2024/03/26 12:36:54;;;;;;;0.00;0.00;;;;;;;15.89;39.65;94186.28;10389344;28;20264;-81
2024/03/26 12:41:55;;;;;;;0.00;0.00;;;;;;;15.63;40.12;94194.38;10390117;28;20048;-79
2024/03/26 12:46:56;;;;;;;0.00;0.00;;;;;;;15.30;41.17;94197.53;10387143;28;20690;-79
2024/03/26 12:51:57;;;;;;;0.00;0.00;;;;;;;15.44;42.33;94181.94;10387193;28;20040;-80
2024/03/26 12:56:57;;;;;;;0.00;0.00;;;;;;;15.32;40.62;94179.06;10387819;28;20033;-82
2024/03/26 13:01:57;;;;;;;0.00;0.00;;;;;;;15.26;38.76;94180.34;10387935;28;20463;-80
2024/03/26 13:06:58;;;;;;;0.00;0.00;;;;;;;14.71;40.85;94174.31;10388660;28;20294;-81
2024/03/26 13:11:58;;;;;;;0.00;0.00;;;;;;;14.56;38.83;94185.53;10370972;28;20697;-81
2024/03/26 13:16:58;;;;;;;0.00;0.00;;;;;;;14.43;39.77;94184.47;10387752;28;20113;-82
2024/03/26 13:21:59;;;;;;;0.00;0.00;;;;;;;14.45;40.32;94177.66;10367990;28;20017;-79
2024/03/26 13:26:59;;;;;;;0.00;0.00;;;;;;;13.82;40.26;94168.72;10385008;28;20025;-79
2024/03/26 13:32:00;;;;;;;0.00;0.00;;;;;;;14.05;39.72;94168.72;10383866;28;20937;-79
2024/03/26 13:37:00;;;;;;;0.00;0.00;;;;;;;13.97;40.00;94175.66;10383260;28;20643;-79
2024/03/26 13:42:01;;;;;;;0.00;0.00;;;;;;;13.99;40.16;94178.84;10350301;28;20022;-80
2024/03/26 13:47:01;;;;;;;0.00;0.00;;;;;;;14.05;41.63;94169.53;10382368;28;20053;-78
2024/03/26 13:52:02;;;;;;;0.00;0.00;;;;;;;14.12;43.15;94169.06;10383522;28;20025;-79
2024/03/26 13:57:02;;;;;;;0.00;0.00;;;;;;;14.11;42.93;94164.78;10385208;28;20030;-79
2024/03/26 14:02:03;;;;;;;0.00;0.00;;;;;;;14.03;44.30;94169.03;10385025;28;20088;-79
2024/03/26 14:07:04;;;;;;;0.00;0.00;;;;;;;13.28;44.71;94164.00;10383562;28;20554;-78
2024/03/26 14:12:05;;;;;;;0.00;0.00;;;;;;;13.56;46.01;94155.03;10388318;28;20053;-79
2024/03/26 14:17:06;;;;;;;0.00;0.00;;;;;;;13.50;46.75;94165.16;10393812;28;20804;-80
2024/03/26 14:22:06;;;;;;;0.00;0.00;;;;;;;13.12;45.00;94165.44;10393148;28;20136;-79
2024/03/26 14:27:07;;;;;;;0.00;0.00;;;;;;;13.23;47.43;94163.28;10394753;28;20032;-80
2024/03/26 14:32:07;;;;;;;0.00;0.00;;;;;;;12.92;45.93;94158.56;10394040;28;20010;-80
2024/03/26 14:37:08;;;;;;;0.00;0.00;;;;;;;12.61;46.65;94178.06;10393293;28;20643;-80
2024/03/26 14:42:09;;;;;;;0.00;0.00;;;;;;;12.58;45.51;94170.56;10376154;28;20022;-81
2024/03/26 14:47:09;;;;;;;0.00;0.00;;;;;;;12.53;45.62;94171.47;10391671;28;20041;-76
2024/03/26 14:52:09;;;;;;;0.00;0.00;;;;;;;12.56;47.84;94170.06;10384272;28;20268;-78
2024/03/26 14:57:10;;;;;;;0.00;0.00;;;;;;;12.62;50.08;94161.56;10383681;28;20414;-77
2024/03/26 15:02:10;;;;;;;0.00;0.00;;;;;;;12.61;45.30;94160.00;10376936;28;20106;-78
2024/03/26 15:07:11;;;;;;;0.00;0.00;;;;;;;12.60;44.30;94161.09;10382410;28;20083;-75
2024/03/26 15:12:11;;;;;;;0.00;0.00;;;;;;;12.25;43.02;94157.97;10382695;28;20025;-76
2024/03/26 15:17:11;;;;;;;0.00;0.00;;;;;;;12.30;42.72;94159.78;10380798;28;20077;-75
2024/03/26 15:22:14;;;;;;;0.00;0.00;;;;;;;12.30;42.45;94157.06;10379959;28;20341;-74
2024/03/26 15:32:17;;;;;;;0.00;0.00;;;;;;;12.32;41.95;94162.97;10380306;28;20443;-75
2024/03/26 15:37:18;;;;;;;0.00;0.00;;;;;;;12.12;41.90;94162.22;10378928;28;20029;-76
2024/03/26 15:42:19;;;;;;;0.00;0.00;;;;;;;12.07;42.08;94162.34;10362381;28;20024;-74
2024/03/26 15:47:20;;;;;;;0.00;0.00;;;;;;;12.12;42.61;94161.44;10379841;28;20086;-76
2024/03/26 15:52:20;;;;;;;0.00;0.00;;;;;;;12.12;43.16;94158.75;10360488;28;20427;-74
2024/03/26 15:57:21;;;;;;;0.00;0.00;;;;;;;11.84;47.27;94165.94;10379352;28;20049;-75
2024/03/26 16:02:23;;;;;;;0.00;0.00;;;;;;;11.52;55.01;94170.22;10378209;28;20037;-75
2024/03/26 16:07:23;;;;;;;0.00;0.00;;;;;;;11.29;59.93;94167.31;10359936;28;20731;-75
2024/03/26 16:12:23;;;;;;;0.00;0.00;;;;;;;10.84;85.37;94167.66;10378409;28;20048;-76
2024/03/26 16:17:24;;;;;;;0.00;0.00;;;;;;;10.36;94.39;94171.16;10378078;28;20681;-74
2024/03/26 16:22:24;;;;;;;0.00;0.00;;;;;;;10.14;88.91;94171.63;10377431;28;20036;-75
2024/03/26 16:27:25;;;;;;;0.00;0.00;;;;;;;9.84;94.30;94189.63;10377495;28;20575;-76
2024/03/26 16:32:26;;;;;;;0.00;0.00;;;;;;;9.71;100.00;94191.09;10378908;28;20774;-80
2024/03/26 16:37:26;;;;;;;0.00;0.00;;;;;;;9.65;100.00;94196.78;10364644;28;20103;-78
2024/03/26 16:42:27;;;;;;;0.00;0.00;;;;;;;9.69;100.00;94187.88;10382281;28;20534;-78
2024/03/26 16:47:27;;;;;;;0.00;0.00;;;;;;;9.91;100.00;94197.38;10363528;28;20667;-79
2024/03/26 16:52:28;;;;;;;0.00;0.00;;;;;;;10.00;100.00;94192.19;10382311;28;20048;-79
2024/03/26 16:57:28;;;;;;;0.00;0.00;;;;;;;9.91;100.00;94182.06;10381439;28;20540;-78
2024/03/26 17:02:38;;;;;;;0.00;0.00;;;;;;;9.74;100.00;94179.78;10517009;27;20389;-78
2024/03/26 17:07:38;;;;;;;0.00;0.00;;;;;;;9.54;96.60;94174.56;10514911;28;20028;-77
2024/03/26 17:12:38;;;;;;;0.00;0.00;;;;;;;9.64;98.90;94154.91;10515672;28;20023;-76
2024/03/26 17:17:39;;;;;;;0.00;0.00;;;;;;;9.48;95.65;94157.72;10504226;28;20016;-77
2024/03/26 17:22:40;;;;;;;0.00;0.00;;;;;;;9.45;100.00;94141.41;10513034;28;20031;-77
2024/03/26 17:27:40;;;;;;;0.00;0.00;;;;;;;9.31;100.00;94136.66;10511077;28;20032;-75
2024/03/26 17:32:52;;;;;;;0.00;0.00;;;;;;;9.11;100.00;94115.38;10511268;28;20020;-83
2024/03/26 17:37:52;;;;;;;0.00;0.00;;;;;;;8.74;100.00;94108.63;10503477;28;20461;-78
2024/03/26 17:42:53;;;;;;;0.00;0.00;;;;;;;8.33;100.00;94106.91;10513159;28;20109;-84
2024/03/26 17:47:53;;;;;;;0.00;0.00;;;;;;;8.17;100.00;94101.63;10509498;28;20024;-87
2024/03/26 17:52:53;;;;;;;0.00;0.00;;;;;;;8.18;100.00;94095.19;10510146;28;20020;-75
2024/03/26 17:57:54;;;;;;;0.00;0.00;;;;;;;8.09;100.00;94102.19;10520659;28;20411;-80
2024/03/26 18:02:54;;;;;;;0.00;0.00;;;;;;;7.74;100.00;94095.84;10531736;28;20077;-87
2024/03/26 18:07:54;;;;;;;0.00;0.00;;;;;;;7.63;100.00;94107.66;10510258;28;20099;-79
2024/03/26 18:12:58;;;;;;;0.00;0.00;;;;;;;7.66;100.00;94097.22;10492949;28;20027;-89
2024/03/26 18:17:58;;;;;;;0.00;0.00;;;;;;;7.61;100.00;94096.44;10488118;28;20294;-81
2024/03/26 18:22:59;;;;;;;0.00;0.00;;;;;;;7.63;100.00;94081.72;10491725;28;20057;-82
2024/03/26 18:28:03;;;;;;;0.00;0.00;;;;;;;7.61;100.00;94085.72;10503790;28;20417;-91
2024/03/26 18:33:04;;;;;;;0.00;0.00;;;;;;;7.65;100.00;94092.94;10482539;28;20282;-76
2024/03/26 18:38:04;;;;;;;0.00;0.00;;;;;;;7.75;100.00;94091.31;10493473;28;20479;-75
2024/03/26 18:43:04;;;;;;;0.00;0.00;;;;;;;7.59;100.00;94096.69;10481972;28;20094;-81
2024/03/26 18:48:05;;;;;;;0.00;0.00;;;;;;;7.35;100.00;94097.25;10494223;28;20262;-80
2024/03/26 18:53:05;;;;;;;0.00;0.00;;;;;;;7.31;100.00;94098.03;10483096;28;20482;-80
2024/03/26 18:58:06;;;;;;;0.00;0.00;;;;;;;7.30;100.00;94118.63;10486958;28;20178;-74
2024/03/26 19:03:07;;;;;;;0.00;0.00;;;;;;;7.18;100.00;94105.53;10478288;28;20024;-74
2024/03/26 19:08:13;;;;;;;0.00;0.00;;;;;;;7.24;100.00;94098.34;10478622;28;20438;-88
2024/03/26 19:13:13;;;;;;;0.00;0.00;;;;;;;7.29;100.00;94111.69;10454109;28;20495;-73
2024/03/26 19:18:15;;;;;;;0.00;0.00;;;;;;;7.33;100.00;94110.06;10457021;28;20029;-78
2024/03/26 19:23:16;;;;;;;0.00;0.00;;;;;;;7.36;100.00;94116.75;10453205;28;20460;-79
2024/03/26 19:28:16;;;;;;;0.00;0.00;;;;;;;7.39;100.00;94118.91;10464395;28;20040;-74
2024/03/26 19:33:18;;;;;;;0.00;0.00;;;;;;;7.50;100.00;94128.50;10454295;28;20095;-74
2024/03/26 19:38:20;;;;;;;0.00;0.00;;;;;;;7.68;100.00;94118.34;10461745;28;20290;-74
2024/03/26 19:43:21;;;;;;;0.00;0.00;;;;;;;7.89;100.00;94113.75;10444719;28;20029;-81
2024/03/26 19:48:21;;;;;;;0.00;0.00;;;;;;;8.02;100.00;94121.22;10442629;28;20021;-79
2024/03/26 19:53:23;;;;;;;0.00;0.00;;;;;;;7.99;100.00;94119.06;10456656;28;20508;-78
2024/03/26 19:58:24;;;;;;;0.00;0.00;;;;;;;8.01;100.00;94114.25;10478197;28;20424;-79
2024/03/26 20:03:24;;;;;;;0.00;0.00;;;;;;;8.06;100.00;94110.75;10452984;28;20378;-82
2024/03/26 20:08:24;;;;;;;0.00;0.00;;;;;;;8.03;100.00;94108.63;10469509;28;20024;-80
2024/03/26 20:13:25;;;;;;;0.00;0.00;;;;;;;7.95;100.00;94106.50;10464347;28;20036;-80
2024/03/26 20:18:28;;;;;;;0.00;0.00;;;;;;;8.07;100.00;94092.84;10442932;28;20033;-79
2024/03/26 20:23:30;;;;;;;0.00;0.00;;;;;;;8.00;100.00;94101.16;10467467;28;20050;-80
2024/03/26 20:28:31;;;;;;;0.00;0.00;;;;;;;7.83;100.00;94104.16;10462734;28;20036;-81
2024/03/26 20:33:39;;;;;;;0.00;0.00;;;;;;;7.70;100.00;94095.63;10463460;28;20036;-79
2024/03/26 20:38:39;;;;;;;0.00;0.00;;;;;;;7.85;100.00;94085.94;10467529;28;20471;-84
2024/03/26 20:43:45;;;;;;;0.00;0.00;;;;;;;8.00;100.00;94080.53;10464162;28;20410;-87
2024/03/26 20:48:46;;;;;;;0.00;0.00;;;;;;;8.14;100.00;94085.31;10456148;28;20865;-77
2024/03/26 20:53:46;;;;;;;0.00;0.00;;;;;;;8.31;100.00;94084.97;10456713;28;20024;-78
2024/03/26 20:58:47;;;;;;;0.00;0.00;;;;;;;8.27;100.00;94086.59;10453547;28;20040;-78
2024/03/26 21:03:48;;;;;;;0.00;0.00;;;;;;;8.35;100.00;94072.66;10449281;28;20925;-79
2024/03/26 21:08:48;;;;;;;0.00;0.00;;;;;;;8.31;100.00;94067.03;10462772;28;20021;-80
2024/03/26 21:13:48;;;;;;;0.00;0.00;;;;;;;8.38;100.00;94064.06;10422706;23;20301;-84
2024/03/26 21:18:49;;;;;;;0.00;0.00;;;;;;;8.49;100.00;94067.53;10399088;28;20186;-80
2024/03/26 21:23:50;;;;;;;0.00;0.00;;;;;;;8.43;100.00;94057.88;10387014;28;20291;-79
2024/03/26 21:28:50;;;;;;;0.00;0.00;;;;;;;8.48;100.00;94055.19;10383848;28;20029;-79
2024/03/26 21:34:00;;;;;;;0.00;0.00;;;;;;;8.36;100.00;94048.28;10389610;28;20044;-83
2024/03/26 21:39:00;;;;;;;0.00;0.00;;;;;;;8.47;100.00;94042.88;10382812;28;20032;-81
2024/03/26 21:44:01;;;;;;;0.00;0.00;;;;;;;8.45;100.00;94045.06;10408836;28;20037;-77
2024/03/26 21:49:02;;;;;;;0.00;0.00;;;;;;;8.47;100.00;94053.59;10402078;28;20268;-75
2024/03/26 21:54:03;;;;;;;0.00;0.00;;;;;;;8.52;100.00;94050.91;10403279;28;20303;-81
2024/03/26 21:59:03;;;;;;;0.00;0.00;;;;;;;8.44;100.00;94046.91;10402344;28;20476;-76
2024/03/26 22:04:06;;;;;;;0.00;0.00;;;;;;;8.54;100.00;94056.78;10407128;28;20026;-79
2024/03/26 22:09:08;;;;;;;0.00;0.00;;;;;;;8.52;100.00;94042.84;10403277;28;20268;-78
2024/03/26 22:14:09;;;;;;;0.00;0.00;;;;;;;8.49;100.00;94057.59;10416087;28;20344;-75
2024/03/26 22:19:09;;;;;;;0.00;0.00;;;;;;;8.33;100.00;94054.19;10406180;28;20500;-76
2024/03/26 22:24:09;;;;;;;0.00;0.00;;;;;;;8.30;100.00;94059.28;10417662;28;20033;-74
2024/03/26 22:29:14;;;;;;;0.00;0.00;;;;;;;8.35;100.00;94068.09;10395902;28;20120;-79
2024/03/26 22:34:14;;;;;;;0.00;0.00;;;;;;;8.34;100.00;94047.75;10411468;22;20066;-78
2024/03/26 22:39:15;;;;;;;0.00;0.00;;;;;;;8.32;100.00;94049.09;10419409;28;20568;-78
2024/03/26 22:44:15;;;;;;;0.00;0.00;;;;;;;7.98;100.00;94050.59;10414338;28;20056;-78
2024/03/26 22:49:16;;;;;;;0.00;0.00;;;;;;;7.85;100.00;94059.97;10414730;28;20135;-79
2024/03/26 22:54:16;;;;;;;0.00;0.00;;;;;;;7.97;100.00;94057.00;10419038;28;20029;-79
2024/03/26 22:59:16;;;;;;;0.00;0.00;;;;;;;8.10;100.00;94065.53;10418314;28;20064;-79
2024/03/26 23:04:17;;;;;;;0.00;0.00;;;;;;;8.09;100.00;94054.00;10415401;28;20031;-80
2024/03/26 23:09:17;;;;;;;0.00;0.00;;;;;;;8.12;100.00;94044.63;10414713;28;20267;-79
2024/03/26 23:14:18;;;;;;;0.00;0.00;;;;;;;8.06;100.00;94043.84;10419237;28;20032;-79
2024/03/26 23:19:19;;;;;;;0.00;0.00;;;;;;;7.98;100.00;94045.25;10417841;28;20028;-78
2024/03/26 23:24:19;;;;;;;0.00;0.00;;;;;;;7.96;100.00;94054.59;10418877;28;20101;-80
2024/03/26 23:29:19;;;;;;;0.00;0.00;;;;;;;7.90;100.00;94059.19;10420933;28;20029;-79